sensor_id;sensor_type;location;lat;lon;timestamp;temperature;humidity
7248;DHT22;3665;51.034;13.642;2022-08-21T00:00:56;17.30;99.90
7248;DHT22;3665;51.034;13.642;2022-08-21T00:05:44;17.30;99.90
7248;DHT22;3665;51.034;13.642;2022-08-21T00:10:29;17.30;99.90
7248;DHT22;3665;51.034;13.642;2022-08-21T00:15:17;17.30;99.90
7248;DHT22;3665;51.034;13.642;2022-08-21T00:20:02;17.30;99.90
7248;DHT22;3665;51.034;13.642;2022-08-21T00:24:46;17.30;99.90
7248;DHT22;3665;51.034;13.642;2022-08-21T00:29:32;17.40;99.90
7248;DHT22;3665;51.034;13.642;2022-08-21T00:34:15;17.30;99.90
7248;DHT22;3665;51.034;13.642;2022-08-21T00:39:00;17.40;99.90
7248;DHT22;3665;51.034;13.642;2022-08-21T00:43:44;17.50;99.90
7248;DHT22;3665;51.034;13.642;2022-08-21T00:48:32;17.50;99.90
7248;DHT22;3665;51.034;13.642;2022-08-21T00:53:20;17.50;99.90
7248;DHT22;3665;51.034;13.642;2022-08-21T00:58:07;17.50;99.90
7248;DHT22;3665;51.034;13.642;2022-08-21T01:02:51;17.50;99.90
7248;DHT22;3665;51.034;13.642;2022-08-21T01:07:36;17.50;99.90
7248;DHT22;3665;51.034;13.642;2022-08-21T01:12:20;17.50;99.90
7248;DHT22;3665;51.034;13.642;2022-08-21T01:17:06;17.50;99.90
7248;DHT22;3665;51.034;13.642;2022-08-21T01:21:51;17.60;99.90
7248;DHT22;3665;51.034;13.642;2022-08-21T01:26:36;17.60;99.90
7248;DHT22;3665;51.034;13.642;2022-08-21T01:31:22;17.40;99.90
7248;DHT22;3665;51.034;13.642;2022-08-21T01:36:08;17.30;99.90
7248;DHT22;3665;51.034;13.642;2022-08-21T01:40:53;17.20;99.90
7248;DHT22;3665;51.034;13.642;2022-08-21T01:45:38;17.00;99.90
7248;DHT22;3665;51.034;13.642;2022-08-21T01:50:24;16.90;99.90
7248;DHT22;3665;51.034;13.642;2022-08-21T01:55:10;16.70;99.90
7248;DHT22;3665;51.034;13.642;2022-08-21T01:59:56;16.70;99.90
7248;DHT22;3665;51.034;13.642;2022-08-21T02:04:40;16.60;99.90
7248;DHT22;3665;51.034;13.642;2022-08-21T02:09:26;16.70;99.90
7248;DHT22;3665;51.034;13.642;2022-08-21T02:14:23;16.60;99.90
7248;DHT22;3665;51.034;13.642;2022-08-21T02:19:16;16.60;99.90
7248;DHT22;3665;51.034;13.642;2022-08-21T02:23:59;16.70;99.90
7248;DHT22;3665;51.034;13.642;2022-08-21T02:28:43;16.60;99.90
7248;DHT22;3665;51.034;13.642;2022-08-21T02:33:27;16.60;99.90
7248;DHT22;3665;51.034;13.642;2022-08-21T02:38:14;16.60;99.90
7248;DHT22;3665;51.034;13.642;2022-08-21T02:42:59;16.60;99.90
7248;DHT22;3665;51.034;13.642;2022-08-21T02:47:47;16.60;99.90
7248;DHT22;3665;51.034;13.642;2022-08-21T02:52:31;16.70;99.90
7248;DHT22;3665;51.034;13.642;2022-08-21T02:57:16;16.70;99.90
7248;DHT22;3665;51.034;13.642;2022-08-21T03:02:00;16.70;99.90
7248;DHT22;3665;51.034;13.642;2022-08-21T03:06:44;16.70;99.90
7248;DHT22;3665;51.034;13.642;2022-08-21T03:11:28;16.70;99.90
7248;DHT22;3665;51.034;13.642;2022-08-21T03:16:14;16.70;99.90
7248;DHT22;3665;51.034;13.642;2022-08-21T03:20:58;16.70;99.90
7248;DHT22;3665;51.034;13.642;2022-08-21T03:25:42;16.60;99.90
7248;DHT22;3665;51.034;13.642;2022-08-21T03:30:27;16.60;99.90
7248;DHT22;3665;51.034;13.642;2022-08-21T03:35:14;16.60;99.90
7248;DHT22;3665;51.034;13.642;2022-08-21T03:39:58;16.60;99.90
7248;DHT22;3665;51.034;13.642;2022-08-21T03:44:42;16.60;99.90
7248;DHT22;3665;51.034;13.642;2022-08-21T03:49:26;16.80;99.90
7248;DHT22;3665;51.034;13.642;2022-08-21T03:54:11;16.70;99.90
7248;DHT22;3665;51.034;13.642;2022-08-21T03:58:55;16.70;99.90
7248;DHT22;3665;51.034;13.642;2022-08-21T04:03:39;16.80;99.90
7248;DHT22;3665;51.034;13.642;2022-08-21T04:08:22;16.80;99.90
7248;DHT22;3665;51.034;13.642;2022-08-21T04:13:08;16.90;99.90
7248;DHT22;3665;51.034;13.642;2022-08-21T04:17:52;16.90;99.90
7248;DHT22;3665;51.034;13.642;2022-08-21T04:22:36;17.00;99.90
7248;DHT22;3665;51.034;13.642;2022-08-21T04:27:20;17.00;99.90
7248;DHT22;3665;51.034;13.642;2022-08-21T04:32:06;17.10;99.90
7248;DHT22;3665;51.034;13.642;2022-08-21T04:36:50;17.10;99.90
7248;DHT22;3665;51.034;13.642;2022-08-21T04:41:34;17.20;99.90
7248;DHT22;3665;51.034;13.642;2022-08-21T04:46:18;17.20;99.90
7248;DHT22;3665;51.034;13.642;2022-08-21T04:51:08;17.30;99.90
7248;DHT22;3665;51.034;13.642;2022-08-21T04:55:54;17.30;99.90
7248;DHT22;3665;51.034;13.642;2022-08-21T05:00:40;17.40;99.90
7248;DHT22;3665;51.034;13.642;2022-08-21T05:05:24;17.50;99.90
7248;DHT22;3665;51.034;13.642;2022-08-21T05:10:10;17.50;99.90
7248;DHT22;3665;51.034;13.642;2022-08-21T05:14:55;17.60;99.90
7248;DHT22;3665;51.034;13.642;2022-08-21T05:19:39;17.70;99.90
7248;DHT22;3665;51.034;13.642;2022-08-21T05:24:23;17.80;99.90
7248;DHT22;3665;51.034;13.642;2022-08-21T05:29:08;17.90;99.90
7248;DHT22;3665;51.034;13.642;2022-08-21T05:33:54;18.00;99.90
7248;DHT22;3665;51.034;13.642;2022-08-21T05:38:38;18.10;99.90
7248;DHT22;3665;51.034;13.642;2022-08-21T05:43:22;18.20;99.90
7248;DHT22;3665;51.034;13.642;2022-08-21T05:48:08;18.10;99.90
7248;DHT22;3665;51.034;13.642;2022-08-21T05:52:53;18.10;99.90
7248;DHT22;3665;51.034;13.642;2022-08-21T05:57:48;18.10;99.90
7248;DHT22;3665;51.034;13.642;2022-08-21T06:02:32;18.20;99.90
7248;DHT22;3665;51.034;13.642;2022-08-21T06:07:19;18.30;99.90
7248;DHT22;3665;51.034;13.642;2022-08-21T06:12:04;18.30;99.90
7248;DHT22;3665;51.034;13.642;2022-08-21T06:16:48;18.30;99.90
7248;DHT22;3665;51.034;13.642;2022-08-21T06:21:32;18.30;99.90
7248;DHT22;3665;51.034;13.642;2022-08-21T06:26:19;18.30;99.90
7248;DHT22;3665;51.034;13.642;2022-08-21T06:31:11;18.30;99.90
7248;DHT22;3665;51.034;13.642;2022-08-21T06:35:55;18.20;99.90
7248;DHT22;3665;51.034;13.642;2022-08-21T06:40:40;18.40;99.90
7248;DHT22;3665;51.034;13.642;2022-08-21T06:45:29;18.50;99.90
7248;DHT22;3665;51.034;13.642;2022-08-21T06:50:13;18.70;99.90
7248;DHT22;3665;51.034;13.642;2022-08-21T06:55:20;19.00;99.90
7248;DHT22;3665;51.034;13.642;2022-08-21T07:00:11;19.20;99.90
7248;DHT22;3665;51.034;13.642;2022-08-21T07:04:56;19.40;99.90
7248;DHT22;3665;51.034;13.642;2022-08-21T07:09:40;19.40;99.90
7248;DHT22;3665;51.034;13.642;2022-08-21T07:14:23;19.70;99.90
7248;DHT22;3665;51.034;13.642;2022-08-21T07:19:07;19.80;99.90
7248;DHT22;3665;51.034;13.642;2022-08-21T07:23:53;20.10;99.90
7248;DHT22;3665;51.034;13.642;2022-08-21T07:28:37;20.20;99.90
7248;DHT22;3665;51.034;13.642;2022-08-21T07:33:28;20.40;99.90
7248;DHT22;3665;51.034;13.642;2022-08-21T07:38:12;20.40;99.90
7248;DHT22;3665;51.034;13.642;2022-08-21T07:42:57;20.60;99.90
7248;DHT22;3665;51.034;13.642;2022-08-21T07:47:41;20.50;99.90
7248;DHT22;3665;51.034;13.642;2022-08-21T07:52:28;20.20;99.90
7248;DHT22;3665;51.034;13.642;2022-08-21T07:57:13;20.00;99.90
7248;DHT22;3665;51.034;13.642;2022-08-21T08:02:01;20.20;99.90
7248;DHT22;3665;51.034;13.642;2022-08-21T08:07:05;20.20;99.90
7248;DHT22;3665;51.034;13.642;2022-08-21T08:11:49;20.30;99.90
7248;DHT22;3665;51.034;13.642;2022-08-21T08:16:33;20.30;99.90
7248;DHT22;3665;51.034;13.642;2022-08-21T08:21:19;20.10;99.90
7248;DHT22;3665;51.034;13.642;2022-08-21T08:26:03;20.20;99.90
7248;DHT22;3665;51.034;13.642;2022-08-21T08:30:48;20.30;99.90
7248;DHT22;3665;51.034;13.642;2022-08-21T08:35:32;20.40;99.90
7248;DHT22;3665;51.034;13.642;2022-08-21T08:40:25;20.60;99.90
7248;DHT22;3665;51.034;13.642;2022-08-21T08:45:15;21.00;99.90
7248;DHT22;3665;51.034;13.642;2022-08-21T08:50:03;21.10;99.90
7248;DHT22;3665;51.034;13.642;2022-08-21T08:54:55;21.30;21.00
7248;DHT22;3665;51.034;13.642;2022-08-21T08:59:45;21.30;19.70
7248;DHT22;3665;51.034;13.642;2022-08-21T09:04:34;20.90;38.30
7248;DHT22;3665;51.034;13.642;2022-08-21T09:09:28;21.10;9.30
7248;DHT22;3665;51.034;13.642;2022-08-21T09:14:22;21.50;20.40
7248;DHT22;3665;51.034;13.642;2022-08-21T09:19:23;21.70;1.00
7248;DHT22;3665;51.034;13.642;2022-08-21T09:24:22;21.80;1.00
7248;DHT22;3665;51.034;13.642;2022-08-21T09:29:10;21.90;1.00
7248;DHT22;3665;51.034;13.642;2022-08-21T09:33:59;22.10;1.00
7248;DHT22;3665;51.034;13.642;2022-08-21T09:38:52;22.30;1.00
7248;DHT22;3665;51.034;13.642;2022-08-21T09:43:37;22.30;1.00
7248;DHT22;3665;51.034;13.642;2022-08-21T09:48:23;22.20;1.00
7248;DHT22;3665;51.034;13.642;2022-08-21T09:53:17;22.40;1.00
7248;DHT22;3665;51.034;13.642;2022-08-21T09:58:03;22.50;1.00
7248;DHT22;3665;51.034;13.642;2022-08-21T10:02:47;22.70;1.00
7248;DHT22;3665;51.034;13.642;2022-08-21T10:07:32;22.50;1.00
7248;DHT22;3665;51.034;13.642;2022-08-21T10:12:20;22.50;1.00
7248;DHT22;3665;51.034;13.642;2022-08-21T10:17:14;22.40;1.00
7248;DHT22;3665;51.034;13.642;2022-08-21T10:22:07;22.40;1.00
7248;DHT22;3665;51.034;13.642;2022-08-21T10:27:00;22.40;1.00
7248;DHT22;3665;51.034;13.642;2022-08-21T10:31:54;22.70;1.00
7248;DHT22;3665;51.034;13.642;2022-08-21T10:36:46;22.60;1.00
7248;DHT22;3665;51.034;13.642;2022-08-21T10:41:52;22.80;1.00
7248;DHT22;3665;51.034;13.642;2022-08-21T10:46:47;22.70;1.00
7248;DHT22;3665;51.034;13.642;2022-08-21T10:51:38;22.90;1.00
7248;DHT22;3665;51.034;13.642;2022-08-21T10:56:28;23.20;1.00
7248;DHT22;3665;51.034;13.642;2022-08-21T11:01:15;23.30;1.00
7248;DHT22;3665;51.034;13.642;2022-08-21T11:06:05;23.30;1.00
7248;DHT22;3665;51.034;13.642;2022-08-21T11:10:53;23.30;1.00
7248;DHT22;3665;51.034;13.642;2022-08-21T11:15:48;23.30;1.00
7248;DHT22;3665;51.034;13.642;2022-08-21T11:20:38;23.30;1.00
7248;DHT22;3665;51.034;13.642;2022-08-21T11:25:29;23.20;1.00
7248;DHT22;3665;51.034;13.642;2022-08-21T11:30:18;23.40;1.00
7248;DHT22;3665;51.034;13.642;2022-08-21T11:35:10;23.70;1.00
7248;DHT22;3665;51.034;13.642;2022-08-21T11:40:03;23.60;1.00
7248;DHT22;3665;51.034;13.642;2022-08-21T11:44:53;23.80;1.00
7248;DHT22;3665;51.034;13.642;2022-08-21T11:49:55;23.80;1.00
7248;DHT22;3665;51.034;13.642;2022-08-21T11:54:45;24.10;1.00
7248;DHT22;3665;51.034;13.642;2022-08-21T11:59:36;24.70;1.00
7248;DHT22;3665;51.034;13.642;2022-08-21T12:04:46;24.70;1.00
7248;DHT22;3665;51.034;13.642;2022-08-21T12:09:34;24.70;1.00
7248;DHT22;3665;51.034;13.642;2022-08-21T12:14:20;24.80;1.00
7248;DHT22;3665;51.034;13.642;2022-08-21T12:19:05;25.10;1.00
7248;DHT22;3665;51.034;13.642;2022-08-21T12:24:02;25.30;1.00
7248;DHT22;3665;51.034;13.642;2022-08-21T12:28:46;26.00;1.00
7248;DHT22;3665;51.034;13.642;2022-08-21T12:33:33;26.00;1.00
7248;DHT22;3665;51.034;13.642;2022-08-21T12:38:21;25.40;1.00
7248;DHT22;3665;51.034;13.642;2022-08-21T12:43:13;25.20;1.00
7248;DHT22;3665;51.034;13.642;2022-08-21T12:48:02;24.50;1.00
7248;DHT22;3665;51.034;13.642;2022-08-21T12:52:57;24.10;1.00
7248;DHT22;3665;51.034;13.642;2022-08-21T12:57:41;23.90;1.00
7248;DHT22;3665;51.034;13.642;2022-08-21T13:02:29;24.00;1.00
7248;DHT22;3665;51.034;13.642;2022-08-21T13:07:16;24.00;1.00
7248;DHT22;3665;51.034;13.642;2022-08-21T13:12:07;23.80;1.00
7248;DHT22;3665;51.034;13.642;2022-08-21T13:16:53;23.50;1.00
7248;DHT22;3665;51.034;13.642;2022-08-21T13:21:40;23.50;1.00
7248;DHT22;3665;51.034;13.642;2022-08-21T13:26:25;23.70;1.00
7248;DHT22;3665;51.034;13.642;2022-08-21T13:31:10;23.70;1.00
7248;DHT22;3665;51.034;13.642;2022-08-21T13:36:03;24.00;1.00
7248;DHT22;3665;51.034;13.642;2022-08-21T13:40:50;24.00;1.00
7248;DHT22;3665;51.034;13.642;2022-08-21T13:45:34;24.50;1.00
7248;DHT22;3665;51.034;13.642;2022-08-21T13:50:21;24.90;1.00
7248;DHT22;3665;51.034;13.642;2022-08-21T13:55:12;25.00;1.00
7248;DHT22;3665;51.034;13.642;2022-08-21T14:00:13;25.30;1.00
7248;DHT22;3665;51.034;13.642;2022-08-21T14:05:01;25.30;1.00
7248;DHT22;3665;51.034;13.642;2022-08-21T14:09:47;25.20;1.00
7248;DHT22;3665;51.034;13.642;2022-08-21T14:14:33;24.70;1.00
7248;DHT22;3665;51.034;13.642;2022-08-21T14:19:20;24.60;1.00
7248;DHT22;3665;51.034;13.642;2022-08-21T14:24:08;24.20;1.00
7248;DHT22;3665;51.034;13.642;2022-08-21T14:28:58;23.70;1.00
7248;DHT22;3665;51.034;13.642;2022-08-21T14:33:50;23.50;1.00
7248;DHT22;3665;51.034;13.642;2022-08-21T14:38:36;23.30;1.00
7248;DHT22;3665;51.034;13.642;2022-08-21T14:43:20;23.40;1.00
7248;DHT22;3665;51.034;13.642;2022-08-21T14:48:05;23.50;1.00
7248;DHT22;3665;51.034;13.642;2022-08-21T14:52:48;23.40;1.00
7248;DHT22;3665;51.034;13.642;2022-08-21T14:57:32;23.20;1.00
7248;DHT22;3665;51.034;13.642;2022-08-21T15:02:17;22.90;1.00
7248;DHT22;3665;51.034;13.642;2022-08-21T15:07:03;22.60;1.00
7248;DHT22;3665;51.034;13.642;2022-08-21T15:11:47;22.20;1.00
7248;DHT22;3665;51.034;13.642;2022-08-21T15:16:30;21.90;1.00
7248;DHT22;3665;51.034;13.642;2022-08-21T15:21:14;21.60;1.00
7248;DHT22;3665;51.034;13.642;2022-08-21T15:25:59;21.50;1.00
7248;DHT22;3665;51.034;13.642;2022-08-21T15:30:44;21.30;1.00
7248;DHT22;3665;51.034;13.642;2022-08-21T15:35:28;21.10;1.00
7248;DHT22;3665;51.034;13.642;2022-08-21T15:40:33;21.30;1.00
7248;DHT22;3665;51.034;13.642;2022-08-21T15:45:19;21.30;1.00
7248;DHT22;3665;51.034;13.642;2022-08-21T15:50:06;21.20;1.00
7248;DHT22;3665;51.034;13.642;2022-08-21T15:54:50;21.20;1.00
7248;DHT22;3665;51.034;13.642;2022-08-21T15:59:40;21.10;1.00
7248;DHT22;3665;51.034;13.642;2022-08-21T16:04:27;20.90;1.00
7248;DHT22;3665;51.034;13.642;2022-08-21T16:09:10;20.80;1.00
7248;DHT22;3665;51.034;13.642;2022-08-21T16:13:54;20.50;1.00
7248;DHT22;3665;51.034;13.642;2022-08-21T16:18:39;20.20;1.00
7248;DHT22;3665;51.034;13.642;2022-08-21T16:23:27;20.10;1.00
7248;DHT22;3665;51.034;13.642;2022-08-21T16:28:14;20.10;1.00
7248;DHT22;3665;51.034;13.642;2022-08-21T16:33:00;20.30;1.00
7248;DHT22;3665;51.034;13.642;2022-08-21T16:37:44;20.20;1.00
7248;DHT22;3665;51.034;13.642;2022-08-21T16:42:36;20.00;1.00
7248;DHT22;3665;51.034;13.642;2022-08-21T16:47:20;19.80;1.00
7248;DHT22;3665;51.034;13.642;2022-08-21T16:52:08;19.30;1.00
7248;DHT22;3665;51.034;13.642;2022-08-21T16:56:51;19.10;1.00
7248;DHT22;3665;51.034;13.642;2022-08-21T17:01:37;18.90;1.00
7248;DHT22;3665;51.034;13.642;2022-08-21T17:06:22;18.80;1.00
7248;DHT22;3665;51.034;13.642;2022-08-21T17:11:14;18.70;1.00
7248;DHT22;3665;51.034;13.642;2022-08-21T17:16:18;18.90;1.00
7248;DHT22;3665;51.034;13.642;2022-08-21T17:21:04;19.00;1.00
7248;DHT22;3665;51.034;13.642;2022-08-21T17:25:50;18.90;1.00
7248;DHT22;3665;51.034;13.642;2022-08-21T17:30:35;18.60;1.00
7248;DHT22;3665;51.034;13.642;2022-08-21T17:35:23;18.20;1.00
7248;DHT22;3665;51.034;13.642;2022-08-21T17:40:11;18.00;1.00
7248;DHT22;3665;51.034;13.642;2022-08-21T17:44:56;17.70;1.00
7248;DHT22;3665;51.034;13.642;2022-08-21T17:49:40;17.50;1.00
7248;DHT22;3665;51.034;13.642;2022-08-21T17:54:24;17.20;1.00
7248;DHT22;3665;51.034;13.642;2022-08-21T17:59:09;16.90;1.00
7248;DHT22;3665;51.034;13.642;2022-08-21T18:03:53;16.60;1.00
7248;DHT22;3665;51.034;13.642;2022-08-21T18:08:37;16.40;1.00
7248;DHT22;3665;51.034;13.642;2022-08-21T18:13:23;16.20;1.00
7248;DHT22;3665;51.034;13.642;2022-08-21T18:18:09;15.90;1.00
7248;DHT22;3665;51.034;13.642;2022-08-21T18:22:53;15.70;1.00
7248;DHT22;3665;51.034;13.642;2022-08-21T18:27:37;15.50;1.00
7248;DHT22;3665;51.034;13.642;2022-08-21T18:32:25;15.30;1.00
7248;DHT22;3665;51.034;13.642;2022-08-21T18:37:14;15.20;1.00
7248;DHT22;3665;51.034;13.642;2022-08-21T18:42:18;15.10;1.00
7248;DHT22;3665;51.034;13.642;2022-08-21T18:47:14;15.00;1.00
7248;DHT22;3665;51.034;13.642;2022-08-21T18:52:02;14.90;1.00
7248;DHT22;3665;51.034;13.642;2022-08-21T18:56:48;14.80;1.00
7248;DHT22;3665;51.034;13.642;2022-08-21T19:01:36;14.70;1.00
7248;DHT22;3665;51.034;13.642;2022-08-21T19:06:21;14.60;1.20
7248;DHT22;3665;51.034;13.642;2022-08-21T19:11:05;14.50;43.20
7248;DHT22;3665;51.034;13.642;2022-08-21T19:15:51;14.30;99.90
7248;DHT22;3665;51.034;13.642;2022-08-21T19:20:35;14.30;99.90
7248;DHT22;3665;51.034;13.642;2022-08-21T19:25:23;14.20;99.90
7248;DHT22;3665;51.034;13.642;2022-08-21T19:30:15;14.10;99.90
7248;DHT22;3665;51.034;13.642;2022-08-21T19:35:02;14.10;99.90
7248;DHT22;3665;51.034;13.642;2022-08-21T19:39:45;14.20;99.90
7248;DHT22;3665;51.034;13.642;2022-08-21T19:44:31;14.10;99.90
7248;DHT22;3665;51.034;13.642;2022-08-21T19:49:18;14.10;99.90
7248;DHT22;3665;51.034;13.642;2022-08-21T19:54:04;14.00;99.90
7248;DHT22;3665;51.034;13.642;2022-08-21T19:58:53;13.90;99.90
7248;DHT22;3665;51.034;13.642;2022-08-21T20:03:37;13.90;99.90
7248;DHT22;3665;51.034;13.642;2022-08-21T20:08:24;13.90;99.90
7248;DHT22;3665;51.034;13.642;2022-08-21T20:13:10;14.00;42.30
7248;DHT22;3665;51.034;13.642;2022-08-21T20:17:54;14.00;19.30
7248;DHT22;3665;51.034;13.642;2022-08-21T20:22:38;14.10;1.00
7248;DHT22;3665;51.034;13.642;2022-08-21T20:27:25;14.10;14.70
7248;DHT22;3665;51.034;13.642;2022-08-21T20:32:10;13.90;94.30
7248;DHT22;3665;51.034;13.642;2022-08-21T20:36:54;13.90;99.90
7248;DHT22;3665;51.034;13.642;2022-08-21T20:41:42;13.80;99.90
7248;DHT22;3665;51.034;13.642;2022-08-21T20:46:30;13.80;99.90
7248;DHT22;3665;51.034;13.642;2022-08-21T20:51:20;13.80;99.90
7248;DHT22;3665;51.034;13.642;2022-08-21T20:56:12;13.70;99.90
7248;DHT22;3665;51.034;13.642;2022-08-21T21:00:59;13.60;99.90
7248;DHT22;3665;51.034;13.642;2022-08-21T21:05:47;13.50;99.90
7248;DHT22;3665;51.034;13.642;2022-08-21T21:10:38;13.50;99.90
7248;DHT22;3665;51.034;13.642;2022-08-21T21:15:28;13.50;99.90
7248;DHT22;3665;51.034;13.642;2022-08-21T21:20:19;13.50;1.00
7248;DHT22;3665;51.034;13.642;2022-08-21T21:25:31;13.50;99.90
7248;DHT22;3665;51.034;13.642;2022-08-21T21:30:27;13.50;1.00
7248;DHT22;3665;51.034;13.642;2022-08-21T21:35:15;13.50;1.00
7248;DHT22;3665;51.034;13.642;2022-08-21T21:40:29;13.50;1.00
7248;DHT22;3665;51.034;13.642;2022-08-21T21:45:22;13.40;1.00
7248;DHT22;3665;51.034;13.642;2022-08-21T21:50:20;13.40;1.00
7248;DHT22;3665;51.034;13.642;2022-08-21T21:55:23;13.40;1.00
7248;DHT22;3665;51.034;13.642;2022-08-21T22:00:15;13.40;99.90
7248;DHT22;3665;51.034;13.642;2022-08-21T22:05:06;13.40;99.90
7248;DHT22;3665;51.034;13.642;2022-08-21T22:09:56;13.40;99.90
7248;DHT22;3665;51.034;13.642;2022-08-21T22:14:47;13.40;99.90
7248;DHT22;3665;51.034;13.642;2022-08-21T22:19:37;13.30;99.90
7248;DHT22;3665;51.034;13.642;2022-08-21T22:24:26;13.40;1.00
7248;DHT22;3665;51.034;13.642;2022-08-21T22:29:17;13.30;1.00
7248;DHT22;3665;51.034;13.642;2022-08-21T22:34:04;13.30;1.00
7248;DHT22;3665;51.034;13.642;2022-08-21T22:39:02;13.40;1.00
7248;DHT22;3665;51.034;13.642;2022-08-21T22:43:54;13.40;99.90
7248;DHT22;3665;51.034;13.642;2022-08-21T22:48:52;13.40;99.90
7248;DHT22;3665;51.034;13.642;2022-08-21T22:53:40;13.30;99.90
7248;DHT22;3665;51.034;13.642;2022-08-21T22:58:29;13.30;99.90
7248;DHT22;3665;51.034;13.642;2022-08-21T23:03:23;13.30;99.90
7248;DHT22;3665;51.034;13.642;2022-08-21T23:08:21;13.20;1.00
7248;DHT22;3665;51.034;13.642;2022-08-21T23:13:10;13.20;1.00
7248;DHT22;3665;51.034;13.642;2022-08-21T23:18:00;13.10;1.00
7248;DHT22;3665;51.034;13.642;2022-08-21T23:22:56;13.00;1.00
7248;DHT22;3665;51.034;13.642;2022-08-21T23:27:53;13.00;1.00
7248;DHT22;3665;51.034;13.642;2022-08-21T23:32:54;13.10;99.90
7248;DHT22;3665;51.034;13.642;2022-08-21T23:37:48;13.10;99.90
7248;DHT22;3665;51.034;13.642;2022-08-21T23:42:51;13.20;99.90
7248;DHT22;3665;51.034;13.642;2022-08-21T23:47:47;13.20;99.90
7248;DHT22;3665;51.034;13.642;2022-08-21T23:52:41;13.20;99.90
7248;DHT22;3665;51.034;13.642;2022-08-21T23:57:42;13.10;99.90
